Time;durP1;ratioP1;P1;durP2;ratioP2;P2;SDS_P1;SDS_P2;PMS_P1;PMS_P2;Temp;Humidity;BMP_temperature;BMP_pressure;BME280_temperature;BME280_humidity;BME280_pressure;Samples;Min_cycle;Max_cycle;Signal;HPM_P1;HPM_P2
2021/01/06 00:01:28;;;;;;;15.30;11.00;;;5.10;93.30;;;;;;5034889;28;20045;-71
2021/01/06 00:03:54;;;;;;;15.02;12.07;;;5.10;93.30;;;;;;5035366;28;20018;-71
2021/01/06 00:06:28;;;;;;;16.00;11.07;;;5.00;93.20;;;;;;5034524;28;20418;-73
2021/01/06 00:08:54;;;;;;;16.30;12.18;;;5.00;93.30;;;;;;5023830;28;20030;-70
2021/01/06 00:11:22;;;;;;;17.90;12.82;;;5.10;93.40;;;;;;5026017;28;20033;-70
2021/01/06 00:13:49;;;;;;;15.32;11.50;;;5.10;93.40;;;;;;5034600;28;20025;-70
2021/01/06 00:16:14;;;;;;;16.83;12.23;;;5.20;93.40;;;;;;5016846;28;20076;-71
2021/01/06 00:18:40;;;;;;;14.00;11.43;;;5.10;93.40;;;;;;5015521;28;20105;-71
2021/01/06 00:21:06;;;;;;;16.08;12.30;;;5.10;93.40;;;;;;5013336;28;20018;-70
2021/01/06 00:23:31;;;;;;;19.92;15.27;;;5.10;93.50;;;;;;5015664;28;20033;-74
2021/01/06 00:25:57;;;;;;;19.23;12.98;;;5.20;93.60;;;;;;5014046;28;20030;-70
2021/01/06 00:28:23;;;;;;;18.60;13.05;;;5.20;93.50;;;;;;5014243;28;20034;-70
2021/01/06 00:30:55;;;;;;;17.02;11.70;;;5.10;93.50;;;;;;5013734;28;20030;-70
2021/01/06 00:33:25;;;;;;;;;;;5.10;93.50;;;;;;5014287;28;20029;-73
2021/01/06 00:35:54;;;;;;;16.42;12.50;;;5.00;93.50;;;;;;5014757;28;19992;-69
2021/01/06 00:38:19;;;;;;;20.65;13.02;;;5.00;93.50;;;;;;5014730;28;20030;-70
2021/01/06 00:40:45;;;;;;;17.35;12.02;;;5.10;93.50;;;;;;5013874;28;20028;-73
2021/01/06 00:43:13;;;;;;;19.98;13.30;;;5.10;93.30;;;;;;5014118;28;20025;-70
2021/01/06 00:45:39;;;;;;;18.48;13.35;;;5.00;93.40;;;;;;5015222;28;20100;-72
2021/01/06 00:48:05;;;;;;;17.30;12.95;;;5.00;93.50;;;;;;5014641;28;20113;-71
2021/01/06 00:50:31;;;;;;;15.63;12.73;;;5.00;93.50;;;;;;5014546;28;20026;-73
2021/01/06 00:53:02;;;;;;;13.88;11.57;;;5.00;93.50;;;;;;5014935;28;20029;-71
2021/01/06 00:55:27;;;;;;;17.30;11.02;;;5.00;93.50;;;;;;5014265;28;20034;-70
2021/01/06 00:57:54;;;;;;;19.75;12.98;;;5.00;93.50;;;;;;5014657;28;20413;-71
2021/01/06 01:00:21;;;;;;;16.48;11.13;;;5.00;93.60;;;;;;5014865;28;20026;-72
2021/01/06 01:02:53;;;;;;;16.88;11.77;;;5.00;93.50;;;;;;5014521;28;20075;-72
2021/01/06 01:05:20;;;;;;;;;;;5.00;93.50;;;;;;5015163;28;20022;-74
2021/01/06 01:07:45;;;;;;;15.80;10.73;;;5.00;93.50;;;;;;5014605;28;20373;-73
2021/01/06 01:10:45;;;;;;;17.02;11.23;;;5.00;93.30;;;;;;5012979;28;20026;-74
2021/01/06 01:13:14;;;;;;;16.58;11.98;;;5.00;93.30;;;;;;5014557;28;20026;-70
2021/01/06 01:15:40;;;;;;;14.80;10.70;;;4.90;93.40;;;;;;5014924;28;20076;-69
2021/01/06 01:18:09;;;;;;;17.25;12.25;;;5.00;93.50;;;;;;5013560;28;20049;-73
2021/01/06 01:20:35;;;;;;;17.55;11.73;;;5.00;93.40;;;;;;5013427;28;20428;-74
2021/01/06 01:23:00;;;;;;;17.20;11.57;;;5.00;93.40;;;;;;5013153;28;20030;-74
2021/01/06 01:25:27;;;;;;;13.73;11.43;;;5.00;93.40;;;;;;5013538;28;20437;-73
2021/01/06 01:27:54;;;;;;;15.32;10.68;;;5.00;93.30;;;;;;5014341;28;20041;-71
2021/01/06 01:30:23;;;;;;;14.77;11.35;;;5.00;93.30;;;;;;5014095;28;20025;-73
2021/01/06 01:32:50;;;;;;;15.45;10.70;;;5.00;93.30;;;;;;5013893;28;20543;-75
2021/01/06 01:35:19;;;;;;;13.20;10.90;;;5.00;93.30;;;;;;5014001;28;20024;-71
2021/01/06 01:37:46;;;;;;;15.63;11.00;;;4.90;93.20;;;;;;5013286;28;20033;-71
2021/01/06 01:40:27;;;;;;;15.35;12.02;;;5.00;93.30;;;;;;5012526;28;20439;-74
2021/01/06 01:43:13;;;;;;;15.57;10.75;;;5.00;93.40;;;;;;5014017;28;20034;-70
2021/01/06 01:45:44;;;;;;;12.80;10.60;;;5.00;93.30;;;;;;5002782;28;20375;-73
2021/01/06 01:48:18;;;;;;;13.95;11.07;;;5.00;93.10;;;;;;5013601;28;20038;-73
2021/01/06 01:50:45;;;;;;;13.77;11.18;;;4.90;93.10;;;;;;5014167;28;20026;-73
2021/01/06 01:53:15;;;;;;;14.02;10.13;;;5.00;93.30;;;;;;5013190;28;20022;-71
2021/01/06 01:55:41;;;;;;;13.02;10.95;;;5.00;93.20;;;;;;5014212;28;20072;-72
2021/01/06 01:58:14;;;;;;;15.32;10.65;;;5.00;93.10;;;;;;5013099;28;20034;-71
2021/01/06 02:00:40;;;;;;;14.63;10.65;;;5.00;93.20;;;;;;5013091;28;20062;-70
2021/01/06 02:03:15;;;;;;;14.60;10.57;;;5.00;92.90;;;;;;5013156;28;20377;-70
2021/01/06 02:05:50;;;;;;;14.75;10.93;;;5.00;92.70;;;;;;5013689;28;20080;-70
2021/01/06 02:08:25;;;;;;;13.27;10.27;;;4.90;92.80;;;;;;5013472;28;20088;-68
2021/01/06 02:10:57;;;;;;;11.60;9.55;;;4.80;92.80;;;;;;5013422;28;20041;-72
2021/01/06 02:13:26;;;;;;;13.48;10.80;;;4.70;92.80;;;;;;5012670;28;20025;-71
2021/01/06 02:16:03;;;;;;;15.68;11.43;;;4.70;92.90;;;;;;5013372;28;20032;-68
2021/01/06 02:18:29;;;;;;;14.75;11.13;;;4.70;92.90;;;;;;5013543;28;20030;-69
2021/01/06 02:21:06;;;;;;;11.00;9.48;;;4.70;93.00;;;;;;5012356;28;20062;-70
2021/01/06 02:23:33;;;;;;;15.68;11.20;;;4.60;92.90;;;;;;5013580;28;20022;-70
2021/01/06 02:26:00;;;;;;;13.65;10.25;;;4.60;92.90;;;;;;5011800;28;20485;-70
2021/01/06 02:28:25;;;;;;;13.35;10.77;;;4.50;92.90;;;;;;5012313;28;20038;-74
2021/01/06 02:30:51;;;;;;;12.25;10.90;;;4.40;93.00;;;;;;5013126;28;20049;-73
2021/01/06 02:33:17;;;;;;;12.38;10.23;;;4.50;93.10;;;;;;5013378;28;20121;-74
2021/01/06 02:35:42;;;;;;;10.15;9.13;;;4.50;93.20;;;;;;5012832;28;20022;-75
2021/01/06 02:38:08;;;;;;;12.30;10.32;;;4.50;93.20;;;;;;5012820;28;20054;-74
2021/01/06 02:40:34;;;;;;;14.45;11.75;;;4.50;93.10;;;;;;5013220;28;20577;-73
2021/01/06 02:43:00;;;;;;;14.93;11.13;;;4.50;93.10;;;;;;5012439;28;20497;-71
2021/01/06 02:45:26;;;;;;;14.45;11.80;;;4.50;93.10;;;;;;5012894;28;20096;-73
2021/01/06 02:47:51;;;;;;;12.15;10.48;;;4.60;93.20;;;;;;5012908;28;20486;-74
2021/01/06 02:50:23;;;;;;;13.07;10.82;;;4.60;93.10;;;;;;5012012;28;20097;-71
2021/01/06 02:52:59;;;;;;;13.68;10.32;;;4.60;93.10;;;;;;5013125;28;20478;-71
2021/01/06 02:55:26;;;;;;;11.82;10.32;;;4.60;93.00;;;;;;5012137;28;20018;-73
2021/01/06 02:57:54;;;;;;;14.05;11.15;;;4.60;93.00;;;;;;5012725;28;20032;-70
2021/01/06 03:00:23;;;;;;;15.68;11.27;;;4.60;93.00;;;;;;5012687;28;20034;-71
2021/01/06 03:02:50;;;;;;;13.32;9.77;;;4.60;93.10;;;;;;5011997;28;20030;-74
2021/01/06 03:05:21;;;;;;;13.45;10.20;;;4.70;93.10;;;;;;5011474;28;20026;-75
2021/01/06 03:07:47;;;;;;;11.53;10.20;;;4.70;92.90;;;;;;5011665;28;20033;-73
2021/01/06 03:10:16;;;;;;;15.75;10.82;;;4.70;92.90;;;;;;5012101;28;20057;-74
2021/01/06 03:12:45;;;;;;;11.70;10.35;;;4.60;93.10;;;;;;5013085;28;20026;-73
2021/01/06 03:15:13;;;;;;;12.55;9.85;;;4.60;92.90;;;;;;5011316;28;20018;-73
2021/01/06 03:17:38;;;;;;;14.00;10.43;;;4.70;92.80;;;;;;5012403;28;20025;-74
2021/01/06 03:20:09;;;;;;;14.30;10.30;;;4.60;92.70;;;;;;5010806;28;20567;-73
2021/01/06 03:22:37;;;;;;;10.45;9.35;;;4.60;92.70;;;;;;5012649;28;20022;-74
2021/01/06 03:25:09;;;;;;;11.00;9.65;;;4.60;92.80;;;;;;5011647;28;20029;-74
2021/01/06 03:27:37;;;;;;;13.23;10.93;;;4.60;92.70;;;;;;5012487;28;20038;-68
2021/01/06 03:30:07;;;;;;;13.25;11.02;;;4.60;92.70;;;;;;5012338;28;20018;-69
2021/01/06 03:32:44;;;;;;;15.32;11.23;;;4.60;92.70;;;;;;5013095;28;20088;-74
2021/01/06 03:35:22;;;;;;;13.73;11.40;;;4.50;92.50;;;;;;5016384;28;20093;-69
2021/01/06 03:37:53;;;;;;;13.40;11.23;;;4.50;92.50;;;;;;5015680;28;20413;-71
2021/01/06 03:40:27;;;;;;;13.43;11.43;;;4.40;92.60;;;;;;5016086;28;20026;-70
2021/01/06 03:42:54;;;;;;;13.90;11.13;;;4.40;92.70;;;;;;5015408;28;20080;-75
2021/01/06 03:45:24;;;;;;;14.05;10.85;;;4.40;92.60;;;;;;5014430;28;20025;-74
2021/01/06 03:48:10;;;;;;;12.73;11.05;;;4.40;92.60;;;;;;5016615;28;20111;-74
2021/01/06 03:50:40;;;;;;;13.60;11.43;;;4.40;92.60;;;;;;5014943;28;20413;-75
2021/01/06 03:53:15;;;;;;;14.18;11.40;;;4.40;92.70;;;;;;5014360;28;20100;-74
2021/01/06 03:55:41;;;;;;;14.10;11.90;;;4.40;92.70;;;;;;5016575;28;20136;-75
2021/01/06 03:58:18;;;;;;;11.52;9.60;;;4.40;92.60;;;;;;5003957;28;20502;-74
2021/01/06 04:00:49;;;;;;;12.63;10.38;;;4.40;92.70;;;;;;5034745;28;20400;-74
2021/01/06 04:03:48;;;;;;;13.63;9.93;;;4.40;92.60;;;;;;5025565;28;20018;-73
2021/01/06 04:06:17;;;;;;;12.95;10.35;;;4.30;92.60;;;;;;5009499;28;20044;-75
2021/01/06 04:09:15;;;;;;;16.08;11.48;;;4.30;92.60;;;;;;5016385;28;20036;-75
2021/01/06 04:11:41;;;;;;;14.35;12.40;;;4.30;92.80;;;;;;5015031;28;20034;-74
2021/01/06 04:14:06;;;;;;;16.48;12.45;;;4.30;92.80;;;;;;5014937;28;20022;-75
2021/01/06 04:16:32;;;;;;;13.65;11.30;;;4.30;92.80;;;;;;5033964;28;20092;-75
2021/01/06 04:18:57;;;;;;;18.55;11.95;;;4.40;92.80;;;;;;5035678;28;20539;-74
2021/01/06 04:21:24;;;;;;;16.52;11.80;;;4.40;92.80;;;;;;5033416;28;20033;-74
2021/01/06 04:23:50;;;;;;;14.93;12.05;;;4.50;92.70;;;;;;5035279;28;20129;-69
2021/01/06 04:26:17;;;;;;;12.65;11.30;;;4.50;92.70;;;;;;5027788;28;20529;-69
2021/01/06 04:28:43;;;;;;;15.68;11.48;;;4.60;92.80;;;;;;5012335;28;20378;-73
2021/01/06 04:31:08;;;;;;;16.83;12.57;;;4.60;92.70;;;;;;5014014;28;20022;-71
2021/01/06 04:33:54;;;;;;;14.77;11.55;;;4.60;92.30;;;;;;5014472;28;20597;-70
2021/01/06 04:36:31;;;;;;;14.73;11.15;;;4.50;92.40;;;;;;5014867;28;20079;-69
2021/01/06 04:38:59;;;;;;;15.32;11.82;;;4.50;92.50;;;;;;5015107;28;20078;-72
2021/01/06 04:41:39;;;;;;;15.13;12.40;;;4.50;92.50;;;;;;5013375;28;20050;-74
2021/01/06 04:44:42;;;;;;;12.60;11.30;;;4.60;92.60;;;;;;5014958;28;20065;-73
2021/01/06 04:47:29;;;;;;;12.68;11.00;;;4.60;92.60;;;;;;5014893;28;20048;-74
2021/01/06 04:50:06;;;;;;;13.13;10.93;;;4.60;92.30;;;;;;5014878;28;20029;-74
2021/01/06 04:52:43;;;;;;;13.02;10.85;;;4.40;92.20;;;;;;5015260;28;20029;-73
2021/01/06 04:55:27;;;;;;;11.57;9.75;;;4.30;92.50;;;;;;5012630;28;20026;-72
2021/01/06 04:58:16;;;;;;;13.32;11.00;;;4.30;92.70;;;;;;5015145;28;20034;-70
2021/01/06 05:01:20;;;;;;;13.73;10.43;;;4.30;92.80;;;;;;5013608;28;20037;-71
2021/01/06 05:03:49;;;;;;;14.05;11.65;;;4.20;92.60;;;;;;5014408;28;20109;-71
2021/01/06 05:06:38;;;;;;;14.20;11.82;;;4.20;92.70;;;;;;5014703;28;20470;-70
2021/01/06 05:09:19;;;;;;;14.75;11.65;;;4.10;92.80;;;;;;5012421;28;20030;-69
2021/01/06 05:11:54;;;;;;;14.27;11.57;;;4.10;93.00;;;;;;5014824;28;20133;-69
2021/01/06 05:14:28;;;;;;;15.60;12.07;;;4.00;93.00;;;;;;5014460;28;20018;-71
2021/01/06 05:16:54;;;;;;;16.92;11.80;;;4.10;93.00;;;;;;5014011;28;20025;-72
2021/01/06 05:19:32;;;;;;;13.05;10.15;;;4.10;93.10;;;;;;5012804;28;20028;-70
2021/01/06 05:21:59;;;;;;;14.15;11.00;;;4.10;93.10;;;;;;5013220;28;20029;-70
2021/01/06 05:24:45;;;;;;;13.23;11.05;;;4.10;93.00;;;;;;5013565;28;20045;-71
2021/01/06 05:27:14;;;;;;;15.60;10.18;;;4.20;93.00;;;;;;5012438;28;20038;-70
2021/01/06 05:29:56;;;;;;;15.23;12.07;;;4.20;92.80;;;;;;5014553;28;20022;-72
2021/01/06 05:32:21;;;;;;;;;;;4.20;92.80;;;;;;5014785;28;20110;-71
2021/01/06 05:34:53;;;;;;;14.98;10.88;;;4.20;92.80;;;;;;5014356;28;19940;-71
2021/01/06 05:37:22;;;;;;;14.60;11.18;;;4.10;92.80;;;;;;5013400;28;20128;-72
2021/01/06 05:39:49;;;;;;;16.38;11.55;;;4.00;92.90;;;;;;5014065;28;20529;-71
2021/01/06 05:42:23;;;;;;;14.00;10.63;;;4.00;92.90;;;;;;5013971;28;20016;-72
2021/01/06 05:44:55;;;;;;;13.77;10.50;;;4.00;92.90;;;;;;5012271;28;20018;-72
2021/01/06 05:47:34;;;;;;;16.52;10.50;;;3.90;93.00;;;;;;5013852;28;20034;-72
2021/01/06 05:50:22;;;;;;;11.65;9.82;;;3.90;92.90;;;;;;5014021;28;20025;-72
2021/01/06 05:53:24;;;;;;;13.38;11.02;;;3.90;93.00;;;;;;5013228;28;20105;-72
2021/01/06 05:55:51;;;;;;;14.07;10.27;;;3.80;92.80;;;;;;5013523;28;20504;-72
2021/01/06 05:58:26;;;;;;;13.07;10.30;;;3.70;92.90;;;;;;5012656;28;20053;-72
2021/01/06 06:01:16;;;;;;;10.95;9.38;;;3.70;93.00;;;;;;5013757;28;20034;-74
2021/01/06 06:04:04;;;;;;;11.52;9.90;;;3.70;93.10;;;;;;5013992;28;20373;-71
2021/01/06 06:07:12;;;;;;;12.18;9.45;;;3.70;93.10;;;;;;5013217;28;20496;-72
2021/01/06 06:10:04;;;;;;;13.07;9.63;;;3.70;93.10;;;;;;5008237;28;20125;-75
2021/01/06 06:13:08;;;;;;;11.85;8.65;;;3.60;92.90;;;;;;5013456;28;20021;-74
2021/01/06 06:15:40;;;;;;;13.40;9.68;;;3.60;93.10;;;;;;5013871;28;20026;-74
2021/01/06 06:18:18;;;;;;;11.98;9.75;;;3.50;93.00;;;;;;5013300;28;20045;-73
2021/01/06 06:20:51;;;;;;;12.52;9.95;;;3.50;93.10;;;;;;5013052;28;20030;-70
2021/01/06 06:23:28;;;;;;;13.55;9.65;;;3.50;93.10;;;;;;5013194;28;20022;-71
2021/01/06 06:26:04;;;;;;;12.50;9.80;;;3.40;93.00;;;;;;5013227;28;20355;-72
2021/01/06 06:28:49;;;;;;;12.75;10.13;;;3.50;93.10;;;;;;5013287;28;20085;-70
2021/01/06 06:31:33;;;;;;;12.27;9.90;;;3.50;93.10;;;;;;5013068;28;20105;-73
2021/01/06 06:34:06;;;;;;;13.15;10.25;;;3.50;93.00;;;;;;5011539;28;20014;-72
2021/01/06 06:36:35;;;;;;;11.23;9.40;;;3.50;92.80;;;;;;5013198;28;20076;-74
2021/01/06 06:39:15;;;;;;;14.32;10.32;;;3.50;92.80;;;;;;5013198;28;20032;-72
2021/01/06 06:41:42;;;;;;;13.32;9.95;;;3.50;92.80;;;;;;5012656;28;20030;-72
2021/01/06 06:44:18;;;;;;;12.15;9.75;;;3.40;92.90;;;;;;5012431;28;20034;-72
2021/01/06 06:46:44;;;;;;;12.32;10.18;;;3.40;92.90;;;;;;5011950;28;20500;-74
2021/01/06 06:49:49;;;;;;;12.73;10.00;;;3.40;93.00;;;;;;5010983;28;20049;-75
2021/01/06 06:52:31;;;;;;;12.43;8.63;;;3.30;93.10;;;;;;5014808;28;20041;-74
2021/01/06 06:55:34;;;;;;;12.18;9.38;;;3.40;93.10;;;;;;5012788;28;20028;-73
2021/01/06 06:58:31;;;;;;;11.88;8.73;;;3.30;93.10;;;;;;5012677;28;20347;-73
2021/01/06 07:00:58;;;;;;;12.63;10.25;;;3.30;93.00;;;;;;5007148;28;20034;-75
2021/01/06 07:03:27;;;;;;;14.48;10.75;;;3.20;93.00;;;;;;5008647;28;20041;-73
2021/01/06 07:05:59;;;;;;;13.63;9.85;;;3.10;93.10;;;;;;5026437;28;20028;-72
2021/01/06 07:08:29;;;;;;;13.32;10.95;;;3.20;93.20;;;;;;5021217;28;20482;-74
2021/01/06 07:11:00;;;;;;;11.32;9.40;;;3.20;93.30;;;;;;5009292;28;20385;-73
2021/01/06 07:13:27;;;;;;;13.43;10.15;;;3.20;93.30;;;;;;5011639;28;20022;-74
2021/01/06 07:16:00;;;;;;;14.02;9.75;;;3.20;93.30;;;;;;5008676;28;20022;-68
2021/01/06 07:18:25;;;;;;;13.05;9.82;;;3.20;93.40;;;;;;5008264;28;20041;-74
2021/01/06 07:21:06;;;;;;;11.25;9.85;;;3.30;93.40;;;;;;5011723;28;20034;-71
2021/01/06 07:23:34;;;;;;;12.75;10.13;;;3.40;93.30;;;;;;5008468;28;20041;-75
2021/01/06 07:26:14;;;;;;;12.88;10.77;;;3.50;93.20;;;;;;4992949;28;20098;-76
2021/01/06 07:28:41;;;;;;;11.45;9.75;;;3.60;93.10;;;;;;4993380;28;20033;-74
2021/01/06 07:31:16;;;;;;;12.80;9.57;;;3.70;92.90;;;;;;4999224;28;20107;-73
2021/01/06 07:33:44;;;;;;;13.27;10.05;;;3.70;92.70;;;;;;5012876;28;20069;-73
2021/01/06 07:36:22;;;;;;;12.00;9.48;;;3.70;92.70;;;;;;5001803;28;20022;-76
2021/01/06 07:38:48;;;;;;;14.63;9.40;;;3.80;92.70;;;;;;5023137;28;20021;-73
2021/01/06 07:41:16;;;;;;;13.32;9.90;;;3.80;92.70;;;;;;5031837;28;20026;-72
2021/01/06 07:43:59;;;;;;;11.35;9.43;;;3.80;92.60;;;;;;5012800;28;20053;-74
2021/01/06 07:46:27;;;;;;;11.63;9.15;;;3.90;92.50;;;;;;5012411;28;20022;-74
2021/01/06 07:49:04;;;;;;;10.18;9.10;;;3.90;92.50;;;;;;5011899;28;20034;-74
2021/01/06 07:51:58;;;;;;;11.15;8.68;;;3.90;92.40;;;;;;5009977;28;20061;-73
2021/01/06 07:54:47;;;;;;;15.27;9.70;;;3.90;92.30;;;;;;5010583;28;20034;-72
2021/01/06 07:57:28;;;;;;;14.25;9.90;;;3.90;92.50;;;;;;5002988;28;20084;-71
2021/01/06 07:59:57;;;;;;;15.52;10.18;;;4.00;92.40;;;;;;5010975;28;20046;-73
2021/01/06 08:02:32;;;;;;;16.00;9.90;;;4.00;92.50;;;;;;4998647;28;20392;-74
2021/01/06 08:05:15;;;;;;;15.38;10.07;;;4.10;92.50;;;;;;5010093;28;20112;-70
2021/01/06 08:07:40;;;;;;;14.05;9.98;;;4.20;92.40;;;;;;5012012;28;20037;-70
2021/01/06 08:10:28;;;;;;;15.32;11.13;;;4.10;92.40;;;;;;4996581;28;20471;-72
2021/01/06 08:13:12;;;;;;;13.63;9.50;;;4.30;92.50;;;;;;4991852;28;20033;-72
2021/01/06 08:15:38;;;;;;;13.68;10.93;;;4.40;92.40;;;;;;4998694;28;20386;-72
2021/01/06 08:18:18;;;;;;;15.68;10.27;;;4.40;92.40;;;;;;4992162;28;20046;-69
2021/01/06 08:21:09;;;;;;;12.27;9.88;;;4.50;92.30;;;;;;4995399;28;20018;-69
2021/01/06 08:23:46;;;;;;;13.75;10.02;;;4.60;92.10;;;;;;5013743;28;20112;-70
2021/01/06 08:26:26;;;;;;;67.60;11.77;;;4.50;92.10;;;;;;5014649;28;20061;-70
2021/01/06 08:29:07;;;;;;;16.65;13.13;;;4.50;92.10;;;;;;5014953;28;20045;-72
2021/01/06 08:31:35;;;;;;;11.10;9.68;;;4.50;92.00;;;;;;5008801;28;20030;-74
2021/01/06 08:34:01;;;;;;;16.65;10.80;;;4.50;92.10;;;;;;4994175;28;20537;-72
2021/01/06 08:36:38;;;;;;;13.77;10.65;;;4.50;91.90;;;;;;5003914;28;20033;-68
2021/01/06 08:39:09;;;;;;;33.78;10.25;;;4.40;91.80;;;;;;5014860;28;20105;-72
2021/01/06 08:41:34;;;;;;;963.08;78.75;;;4.50;91.90;;;;;;4997774;28;20391;-76
2021/01/06 08:44:02;;;;;;;14.40;10.48;;;4.60;91.90;;;;;;5001245;28;20026;-78
2021/01/06 08:46:32;;;;;;;14.63;10.43;;;4.70;91.70;;;;;;5014526;28;20032;-80
2021/01/06 08:49:10;;;;;;;11.93;9.77;;;4.80;91.40;;;;;;4999110;28;20026;-82
2021/01/06 08:51:37;;;;;;;13.00;9.35;;;4.90;91.30;;;;;;5005413;28;20022;-83
2021/01/06 08:54:43;;;;;;;11.38;8.45;;;4.90;91.20;;;;;;5013911;28;20068;-80
2021/01/06 08:57:22;;;;;;;60.55;11.10;;;4.80;90.70;;;;;;4993652;28;20117;-79
2021/01/06 08:59:48;;;;;;;10.77;9.10;;;4.80;90.80;;;;;;4977049;28;20069;-77
2021/01/06 09:02:34;;;;;;;12.00;9.63;;;4.90;90.80;;;;;;5003933;28;20390;-77
2021/01/06 09:05:00;;;;;;;10.70;9.25;;;4.80;90.60;;;;;;5010557;28;20030;-76
2021/01/06 09:07:30;;;;;;;10.82;8.98;;;4.80;90.20;;;;;;4994144;28;20035;-80
2021/01/06 09:10:02;;;;;;;10.60;9.32;;;4.70;90.00;;;;;;4994273;28;20125;-76
2021/01/06 09:12:54;;;;;;;9.90;6.85;;;4.70;90.00;;;;;;4994744;28;20422;-74
2021/01/06 09:15:28;;;;;;;;;;;4.60;89.90;;;;;;4996098;28;20023;-81
2021/01/06 09:18:15;;;;;;;11.68;9.23;;;4.50;89.40;;;;;;4994076;28;19906;-78
2021/01/06 09:21:21;;;;;;;10.40;8.90;;;4.50;89.60;;;;;;5006725;28;20458;-69
2021/01/06 09:23:57;;;;;;;12.90;8.77;;;4.60;90.20;;;;;;4935369;29;20031;-82
2021/01/06 09:26:26;;;;;;;10.63;8.98;;;4.70;90.20;;;;;;4937974;29;20032;-75
2021/01/06 09:29:05;;;;;;;14.25;9.27;;;4.80;90.10;;;;;;4967923;28;20134;-74
2021/01/06 09:31:36;;;;;;;11.68;9.05;;;4.90;90.00;;;;;;5008076;28;20057;-74
2021/01/06 09:34:02;;;;;;;10.73;8.90;;;5.00;90.10;;;;;;5013113;28;20033;-74
2021/01/06 09:36:28;;;;;;;10.88;8.32;;;4.90;89.50;;;;;;5012554;28;20029;-73
2021/01/06 09:38:56;;;;;;;10.10;8.48;;;5.00;90.00;;;;;;5014031;28;20470;-75
2021/01/06 09:41:26;;;;;;;10.07;8.85;;;5.00;89.60;;;;;;5014129;28;20417;-75
2021/01/06 09:44:02;;;;;;;9.75;8.40;;;5.00;89.80;;;;;;5010230;28;20093;-74
2021/01/06 09:46:30;;;;;;;11.18;8.98;;;5.00;89.60;;;;;;4994476;28;20030;-74
2021/01/06 09:49:06;;;;;;;13.25;9.43;;;5.00;89.30;;;;;;4992974;28;20026;-73
2021/01/06 09:51:33;;;;;;;12.27;9.15;;;5.20;89.70;;;;;;5003979;28;20029;-75
2021/01/06 09:54:03;;;;;;;11.75;8.43;;;5.20;89.00;;;;;;5012003;28;20108;-74
2021/01/06 09:56:31;;;;;;;12.57;9.50;;;5.40;88.90;;;;;;4993705;28;20578;-75
2021/01/06 09:58:58;;;;;;;13.15;8.70;;;5.30;87.40;;;;;;4992017;28;20046;-75
2021/01/06 10:01:38;;;;;;;11.25;8.77;;;5.10;86.50;;;;;;4992708;28;20034;-75
2021/01/06 10:04:16;;;;;;;12.43;9.15;;;4.90;87.00;;;;;;4993507;28;20029;-76
2021/01/06 10:07:13;;;;;;;10.23;7.90;;;4.80;87.40;;;;;;4999648;28;20026;-74
2021/01/06 10:09:43;;;;;;;12.07;9.73;;;4.70;87.70;;;;;;5010065;28;20026;-76
2021/01/06 10:12:28;;;;;;;10.80;8.75;;;4.60;88.30;;;;;;5016807;28;20026;-74
2021/01/06 10:15:25;;;;;;;12.63;8.98;;;4.60;88.90;;;;;;5031907;28;20030;-74
2021/01/06 10:18:12;;;;;;;12.80;10.23;;;4.60;89.20;;;;;;5031791;28;20031;-73
2021/01/06 10:21:06;;;;;;;12.20;9.25;;;4.70;89.90;;;;;;5004647;28;20029;-70
2021/01/06 10:24:02;;;;;;;12.38;9.20;;;4.80;89.90;;;;;;5007386;28;20068;-74
2021/01/06 10:26:41;;;;;;;10.85;8.57;;;4.90;89.70;;;;;;5009363;28;20038;-75
2021/01/06 10:29:19;;;;;;;13.25;8.82;;;4.90;88.60;;;;;;5011371;28;20100;-74
2021/01/06 10:32:20;;;;;;;11.60;9.30;;;5.00;89.00;;;;;;5000155;28;20022;-73
2021/01/06 10:35:06;;;;;;;13.57;9.10;;;5.00;88.30;;;;;;4996868;28;20029;-73
2021/01/06 10:37:31;;;;;;;10.00;7.80;;;4.90;88.50;;;;;;5013066;28;20027;-72
2021/01/06 10:40:11;;;;;;;10.07;8.40;;;5.00;88.70;;;;;;5010998;28;20108;-72
2021/01/06 10:42:37;;;;;;;10.63;8.35;;;5.00;88.20;;;;;;5012639;28;20042;-72
2021/01/06 10:45:09;;;;;;;10.52;8.02;;;5.00;88.00;;;;;;5011456;28;20599;-74
2021/01/06 10:47:34;;;;;;;9.75;8.25;;;5.10;87.40;;;;;;5005682;28;20069;-73
2021/01/06 10:50:29;;;;;;;10.27;7.38;;;5.10;87.30;;;;;;5009176;28;20064;-73
2021/01/06 10:53:13;;;;;;;9.30;6.35;;;5.20;86.90;;;;;;4995596;28;20069;-72
2021/01/06 10:55:43;;;;;;;9.68;7.13;;;5.20;86.30;;;;;;4993288;28;20042;-75
2021/01/06 10:58:16;;;;;;;12.77;7.55;;;5.10;86.20;;;;;;4993199;28;20019;-73
2021/01/06 11:00:56;;;;;;;9.52;7.15;;;5.10;86.10;;;;;;4993407;28;20108;-73
2021/01/06 11:03:57;;;;;;;11.05;7.40;;;5.00;86.40;;;;;;4993966;28;20026;-76
2021/01/06 11:06:58;;;;;;;11.95;7.30;;;5.00;86.50;;;;;;4991962;28;20022;-76
2021/01/06 11:09:46;;;;;;;9.80;7.30;;;5.10;86.50;;;;;;4975288;28;20589;-77
2021/01/06 11:12:35;;;;;;;7.88;7.00;;;5.10;86.70;;;;;;4992881;28;20022;-75
2021/01/06 11:15:35;;;;;;;9.60;6.70;;;5.10;87.00;;;;;;5006570;28;20489;-75
2021/01/06 11:18:03;;;;;;;8.43;6.88;;;5.20;86.50;;;;;;5005173;28;20027;-75
2021/01/06 11:20:35;;;;;;;10.25;6.85;;;5.30;86.30;;;;;;4997994;28;20037;-74
2021/01/06 11:23:28;;;;;;;8.88;5.80;;;5.40;86.00;;;;;;5011703;28;20101;-76
2021/01/06 11:25:59;;;;;;;8.02;5.60;;;5.40;85.40;;;;;;5012492;28;20029;-75
2021/01/06 11:28:50;;;;;;;7.57;5.68;;;5.40;84.90;;;;;;5010434;28;20537;-75
2021/01/06 11:31:27;;;;;;;8.40;6.03;;;5.40;84.70;;;;;;5011934;28;20036;-77
2021/01/06 11:34:11;;;;;;;8.80;5.60;;;5.40;84.70;;;;;;5012343;28;20041;-75
2021/01/06 11:36:55;;;;;;;7.00;5.22;;;5.30;83.30;;;;;;5010170;28;20037;-72
2021/01/06 11:39:26;;;;;;;8.73;6.05;;;5.30;83.50;;;;;;5012181;28;20025;-74
2021/01/06 11:42:00;;;;;;;9.75;6.65;;;5.30;84.10;;;;;;5010903;28;20545;-74
2021/01/06 11:44:31;;;;;;;7.47;6.13;;;5.40;84.80;;;;;;5007214;28;20112;-74
2021/01/06 11:47:24;;;;;;;7.97;5.72;;;5.40;83.50;;;;;;4994673;28;20483;-74
2021/01/06 11:50:02;;;;;;;7.47;5.82;;;5.40;83.30;;;;;;5008004;28;20148;-75
2021/01/06 11:52:42;;;;;;;9.30;5.82;;;5.40;83.70;;;;;;5009131;28;20117;-76
2021/01/06 11:55:28;;;;;;;12.00;6.13;;;5.40;84.30;;;;;;5011433;28;20075;-76
2021/01/06 11:58:17;;;;;;;6.85;5.20;;;5.50;83.60;;;;;;5013316;28;20030;-75
2021/01/06 12:01:24;;;;;;;8.10;5.35;;;5.60;83.80;;;;;;5009754;28;20068;-74
2021/01/06 12:04:15;;;;;;;9.45;5.72;;;5.70;84.10;;;;;;5014563;28;20378;-74
2021/01/06 12:06:49;;;;;;;9.32;6.57;;;5.70;83.60;;;;;;5015897;28;20038;-70
2021/01/06 12:09:38;;;;;;;6.68;4.93;;;5.80;83.70;;;;;;5008770;28;20038;-73
2021/01/06 12:12:25;;;;;;;8.60;5.50;;;5.90;82.90;;;;;;5027870;28;20474;-71
2021/01/06 12:15:06;;;;;;;8.85;5.45;;;5.90;82.10;;;;;;5021733;28;20076;-70
2021/01/06 12:17:37;;;;;;;7.53;4.95;;;5.80;81.70;;;;;;5014915;28;20048;-70
2021/01/06 12:20:18;;;;;;;9.82;5.68;;;5.90;82.40;;;;;;5000619;28;20023;-70
2021/01/06 12:23:15;;;;;;;18.67;11.07;;;5.90;82.80;;;;;;4997133;28;20042;-72
2021/01/06 12:25:44;;;;;;;9.02;6.38;;;5.90;82.50;;;;;;5014799;28;20537;-70
2021/01/06 12:28:36;;;;;;;9.48;6.53;;;5.90;81.80;;;;;;5014051;28;20042;-73
2021/01/06 12:31:04;;;;;;;;;;;5.90;82.60;;;;;;5018943;28;20044;-70
2021/01/06 12:33:35;;;;;;;7.78;4.78;;;5.90;82.30;;;;;;5016702;28;20440;-71
2021/01/06 12:36:11;;;;;;;6.15;4.57;;;5.90;81.00;;;;;;5015071;28;20076;-71
2021/01/06 12:38:37;;;;;;;6.85;4.28;;;5.90;80.00;;;;;;5015015;28;20018;-72
2021/01/06 12:41:05;;;;;;;9.30;4.72;;;5.80;80.20;;;;;;5014424;28;20057;-70
2021/01/06 12:43:36;;;;;;;8.43;4.55;;;5.90;80.60;;;;;;5014804;28;20045;-72
2021/01/06 12:46:22;;;;;;;6.65;4.18;;;5.90;79.80;;;;;;5016389;28;20030;-70
2021/01/06 12:49:17;;;;;;;5.55;4.18;;;5.90;80.50;;;;;;5024990;28;20413;-68
2021/01/06 12:51:49;;;;;;;10.70;4.28;;;6.00;80.20;;;;;;5021214;28;20025;-72
2021/01/06 12:54:20;;;;;;;5.05;4.05;;;6.00;80.20;;;;;;5026667;28;20029;-74
2021/01/06 12:56:51;;;;;;;7.90;4.43;;;6.00;78.60;;;;;;5033581;28;20017;-72
2021/01/06 12:59:21;;;;;;;5.75;3.70;;;5.90;78.70;;;;;;5017499;28;20046;-71
2021/01/06 13:01:59;;;;;;;7.55;3.85;;;5.90;79.60;;;;;;5014602;28;20113;-74
2021/01/06 13:04:35;;;;;;;5.43;4.22;;;5.80;79.80;;;;;;5017629;28;20033;-74
2021/01/06 13:07:07;;;;;;;7.07;4.25;;;5.80;79.70;;;;;;5027118;28;20482;-73
2021/01/06 13:09:42;;;;;;;6.93;3.28;;;5.80;79.00;;;;;;5033585;28;20061;-75
2021/01/06 13:12:24;;;;;;;5.90;4.00;;;5.80;79.20;;;;;;5033350;28;20108;-73
2021/01/06 13:15:01;;;;;;;5.20;3.65;;;5.70;80.00;;;;;;5007680;28;20097;-74
2021/01/06 13:17:39;;;;;;;7.10;4.35;;;5.70;79.10;;;;;;5014445;28;20033;-74
2021/01/06 13:20:13;;;;;;;6.82;3.92;;;5.70;79.40;;;;;;5022981;28;20423;-74
2021/01/06 13:22:42;;;;;;;4.85;3.53;;;5.80;80.00;;;;;;5013813;28;20580;-73
2021/01/06 13:25:16;;;;;;;6.97;3.88;;;5.90;79.90;;;;;;5017565;28;20026;-74
2021/01/06 13:27:55;;;;;;;7.78;4.13;;;5.90;78.90;;;;;;5014279;28;20173;-74